sensor_id;sensor_type;location;lat;lon;timestamp;P1;durP1;ratioP1;P2;durP2;ratioP2
9445;SDS011;4761;49.490;10.908;2023-05-19T00:01:05;3.43;;;1.90;;
9445;SDS011;4761;49.490;10.908;2023-05-19T00:03:31;2.73;;;1.80;;
9445;SDS011;4761;49.490;10.908;2023-05-19T00:05:57;2.77;;;1.77;;
9445;SDS011;4761;49.490;10.908;2023-05-19T00:08:26;3.00;;;1.60;;
9445;SDS011;4761;49.490;10.908;2023-05-19T00:10:56;3.80;;;1.80;;
9445;SDS011;4761;49.490;10.908;2023-05-19T00:13:22;3.10;;;1.70;;
9445;SDS011;4761;49.490;10.908;2023-05-19T00:15:48;2.47;;;1.33;;
9445;SDS011;4761;49.490;10.908;2023-05-19T00:18:14;2.40;;;1.67;;
9445;SDS011;4761;49.490;10.908;2023-05-19T00:20:41;2.73;;;1.80;;
9445;SDS011;4761;49.490;10.908;2023-05-19T00:23:07;3.10;;;1.50;;
9445;SDS011;4761;49.490;10.908;2023-05-19T00:25:32;4.07;;;2.10;;
9445;SDS011;4761;49.490;10.908;2023-05-19T00:27:58;3.00;;;1.70;;
9445;SDS011;4761;49.490;10.908;2023-05-19T00:30:23;3.00;;;1.83;;
9445;SDS011;4761;49.490;10.908;2023-05-19T00:32:49;2.73;;;1.50;;
9445;SDS011;4761;49.490;10.908;2023-05-19T00:35:15;3.10;;;1.60;;
9445;SDS011;4761;49.490;10.908;2023-05-19T00:37:41;2.47;;;1.70;;
9445;SDS011;4761;49.490;10.908;2023-05-19T00:40:08;3.43;;;1.87;;
9445;SDS011;4761;49.490;10.908;2023-05-19T00:42:33;2.80;;;1.60;;
9445;SDS011;4761;49.490;10.908;2023-05-19T00:44:59;2.40;;;1.40;;
9445;SDS011;4761;49.490;10.908;2023-05-19T00:47:25;2.77;;;1.70;;
9445;SDS011;4761;49.490;10.908;2023-05-19T00:49:50;2.53;;;1.57;;
9445;SDS011;4761;49.490;10.908;2023-05-19T00:52:16;2.67;;;1.50;;
9445;SDS011;4761;49.490;10.908;2023-05-19T00:54:42;3.10;;;1.57;;
9445;SDS011;4761;49.490;10.908;2023-05-19T00:57:09;2.73;;;1.50;;
9445;SDS011;4761;49.490;10.908;2023-05-19T00:59:35;2.07;;;1.40;;
9445;SDS011;4761;49.490;10.908;2023-05-19T01:02:00;2.10;;;1.40;;
9445;SDS011;4761;49.490;10.908;2023-05-19T01:04:26;2.57;;;1.53;;
9445;SDS011;4761;49.490;10.908;2023-05-19T01:06:53;1.80;;;1.50;;
9445;SDS011;4761;49.490;10.908;2023-05-19T01:09:20;2.13;;;1.50;;
9445;SDS011;4761;49.490;10.908;2023-05-19T01:11:46;1.43;;;1.30;;
9445;SDS011;4761;49.490;10.908;2023-05-19T01:14:12;2.83;;;1.67;;
9445;SDS011;4761;49.490;10.908;2023-05-19T01:16:39;2.33;;;1.40;;
9445;SDS011;4761;49.490;10.908;2023-05-19T01:22:21;2.57;;;1.80;;
9445;SDS011;4761;49.490;10.908;2023-05-19T01:30:43;3.00;;;1.80;;
9445;SDS011;4761;49.490;10.908;2023-05-19T01:33:13;2.93;;;1.70;;
9445;SDS011;4761;49.490;10.908;2023-05-19T01:35:40;3.20;;;1.90;;
9445;SDS011;4761;49.490;10.908;2023-05-19T01:38:07;3.90;;;2.30;;
9445;SDS011;4761;49.490;10.908;2023-05-19T01:40:35;2.93;;;1.80;;
9445;SDS011;4761;49.490;10.908;2023-05-19T01:43:03;2.70;;;1.53;;
9445;SDS011;4761;49.490;10.908;2023-05-19T01:45:31;3.13;;;2.10;;
9445;SDS011;4761;49.490;10.908;2023-05-19T01:47:59;2.73;;;1.70;;
9445;SDS011;4761;49.490;10.908;2023-05-19T01:50:26;4.43;;;2.10;;
9445;SDS011;4761;49.490;10.908;2023-05-19T01:52:53;3.23;;;1.90;;
9445;SDS011;4761;49.490;10.908;2023-05-19T01:55:19;4.97;;;2.37;;
9445;SDS011;4761;49.490;10.908;2023-05-19T02:00:43;4.47;;;2.27;;
9445;SDS011;4761;49.490;10.908;2023-05-19T02:03:36;2.50;;;1.70;;
9445;SDS011;4761;49.490;10.908;2023-05-19T02:06:14;2.77;;;1.77;;
9445;SDS011;4761;49.490;10.908;2023-05-19T02:12:23;3.90;;;2.10;;
9445;SDS011;4761;49.490;10.908;2023-05-19T02:17:42;4.57;;;2.70;;
9445;SDS011;4761;49.490;10.908;2023-05-19T02:20:14;5.40;;;2.87;;
9445;SDS011;4761;49.490;10.908;2023-05-19T02:22:40;5.73;;;2.53;;
9445;SDS011;4761;49.490;10.908;2023-05-19T02:25:06;6.03;;;2.97;;
9445;SDS011;4761;49.490;10.908;2023-05-19T02:27:33;4.77;;;2.50;;
9445;SDS011;4761;49.490;10.908;2023-05-19T02:30:00;6.40;;;2.97;;
9445;SDS011;4761;49.490;10.908;2023-05-19T02:32:26;5.73;;;3.00;;
9445;SDS011;4761;49.490;10.908;2023-05-19T02:34:51;6.43;;;3.10;;
9445;SDS011;4761;49.490;10.908;2023-05-19T02:37:17;6.20;;;3.00;;
9445;SDS011;4761;49.490;10.908;2023-05-19T02:39:42;7.97;;;3.33;;
9445;SDS011;4761;49.490;10.908;2023-05-19T02:42:08;5.30;;;2.80;;
9445;SDS011;4761;49.490;10.908;2023-05-19T02:44:34;6.83;;;3.20;;
9445;SDS011;4761;49.490;10.908;2023-05-19T02:47:00;8.77;;;3.10;;
9445;SDS011;4761;49.490;10.908;2023-05-19T02:49:26;6.33;;;3.30;;
9445;SDS011;4761;49.490;10.908;2023-05-19T02:51:54;5.57;;;2.90;;
9445;SDS011;4761;49.490;10.908;2023-05-19T02:54:20;5.90;;;2.93;;
9445;SDS011;4761;49.490;10.908;2023-05-19T02:56:45;5.10;;;3.03;;
9445;SDS011;4761;49.490;10.908;2023-05-19T02:59:11;7.50;;;3.23;;
9445;SDS011;4761;49.490;10.908;2023-05-19T03:01:36;6.23;;;3.00;;
9445;SDS011;4761;49.490;10.908;2023-05-19T03:04:04;10.03;;;4.70;;
9445;SDS011;4761;49.490;10.908;2023-05-19T03:06:29;10.27;;;4.83;;
9445;SDS011;4761;49.490;10.908;2023-05-19T03:08:56;8.80;;;4.30;;
9445;SDS011;4761;49.490;10.908;2023-05-19T03:11:22;11.50;;;4.90;;
9445;SDS011;4761;49.490;10.908;2023-05-19T03:13:48;10.93;;;4.60;;
9445;SDS011;4761;49.490;10.908;2023-05-19T03:16:13;13.57;;;6.50;;
9445;SDS011;4761;49.490;10.908;2023-05-19T03:18:39;11.93;;;5.50;;
9445;SDS011;4761;49.490;10.908;2023-05-19T03:21:05;6.97;;;3.67;;
9445;SDS011;4761;49.490;10.908;2023-05-19T03:23:31;5.27;;;2.53;;
9445;SDS011;4761;49.490;10.908;2023-05-19T03:25:56;10.50;;;4.23;;
9445;SDS011;4761;49.490;10.908;2023-05-19T03:28:22;21.77;;;8.33;;
9445;SDS011;4761;49.490;10.908;2023-05-19T03:30:47;19.80;;;8.60;;
9445;SDS011;4761;49.490;10.908;2023-05-19T03:33:16;18.27;;;7.90;;
9445;SDS011;4761;49.490;10.908;2023-05-19T03:35:42;19.10;;;8.70;;
9445;SDS011;4761;49.490;10.908;2023-05-19T03:38:08;16.33;;;6.93;;
9445;SDS011;4761;49.490;10.908;2023-05-19T03:40:34;18.43;;;7.83;;
9445;SDS011;4761;49.490;10.908;2023-05-19T03:42:59;20.07;;;8.63;;
9445;SDS011;4761;49.490;10.908;2023-05-19T03:45:25;12.10;;;5.63;;
9445;SDS011;4761;49.490;10.908;2023-05-19T03:47:51;7.63;;;4.10;;
9445;SDS011;4761;49.490;10.908;2023-05-19T03:50:16;6.85;;;3.78;;
9445;SDS011;4761;49.490;10.908;2023-05-19T03:52:42;3.83;;;2.20;;
9445;SDS011;4761;49.490;10.908;2023-05-19T03:55:10;2.93;;;2.00;;
9445;SDS011;4761;49.490;10.908;2023-05-19T03:57:36;7.25;;;2.83;;
9445;SDS011;4761;49.490;10.908;2023-05-19T04:00:02;19.23;;;7.50;;
9445;SDS011;4761;49.490;10.908;2023-05-19T04:02:29;23.67;;;8.02;;
9445;SDS011;4761;49.490;10.908;2023-05-19T04:04:55;17.30;;;6.97;;
9445;SDS011;4761;49.490;10.908;2023-05-19T04:07:21;16.15;;;6.95;;
9445;SDS011;4761;49.490;10.908;2023-05-19T04:09:47;12.35;;;5.53;;
9445;SDS011;4761;49.490;10.908;2023-05-19T04:12:13;8.93;;;4.32;;
9445;SDS011;4761;49.490;10.908;2023-05-19T04:14:39;6.38;;;3.38;;
9445;SDS011;4761;49.490;10.908;2023-05-19T04:17:04;5.00;;;2.55;;
9445;SDS011;4761;49.490;10.908;2023-05-19T04:19:30;7.25;;;3.10;;
9445;SDS011;4761;49.490;10.908;2023-05-19T04:21:55;17.20;;;5.47;;
9445;SDS011;4761;49.490;10.908;2023-05-19T04:24:21;18.65;;;6.90;;
9445;SDS011;4761;49.490;10.908;2023-05-19T04:26:46;21.70;;;8.18;;
9445;SDS011;4761;49.490;10.908;2023-05-19T04:29:12;18.73;;;7.57;;
9445;SDS011;4761;49.490;10.908;2023-05-19T04:31:41;17.15;;;7.88;;
9445;SDS011;4761;49.490;10.908;2023-05-19T04:34:08;12.90;;;8.05;;
9445;SDS011;4761;49.490;10.908;2023-05-19T04:36:34;9.00;;;6.53;;
9445;SDS011;4761;49.490;10.908;2023-05-19T04:39:00;8.63;;;6.70;;
9445;SDS011;4761;49.490;10.908;2023-05-19T04:41:27;6.22;;;5.25;;
9445;SDS011;4761;49.490;10.908;2023-05-19T04:43:53;5.18;;;4.18;;
9445;SDS011;4761;49.490;10.908;2023-05-19T04:46:21;6.82;;;6.22;;
9445;SDS011;4761;49.490;10.908;2023-05-19T04:48:48;7.53;;;6.90;;
9445;SDS011;4761;49.490;10.908;2023-05-19T04:51:14;10.98;;;10.07;;
9445;SDS011;4761;49.490;10.908;2023-05-19T04:53:40;13.88;;;12.77;;
9445;SDS011;4761;49.490;10.908;2023-05-19T04:56:07;14.00;;;12.80;;
9445;SDS011;4761;49.490;10.908;2023-05-19T04:58:33;12.35;;;11.45;;
9445;SDS011;4761;49.490;10.908;2023-05-19T05:00:59;4.55;;;2.78;;
9445;SDS011;4761;49.490;10.908;2023-05-19T05:03:24;4.57;;;2.58;;
9445;SDS011;4761;49.490;10.908;2023-05-19T05:05:50;4.85;;;2.95;;
9445;SDS011;4761;49.490;10.908;2023-05-19T05:08:16;3.88;;;2.40;;
9445;SDS011;4761;49.490;10.908;2023-05-19T05:10:47;3.47;;;2.15;;
9445;SDS011;4761;49.490;10.908;2023-05-19T05:13:16;3.07;;;2.10;;
9445;SDS011;4761;49.490;10.908;2023-05-19T05:15:46;3.73;;;2.27;;
9445;SDS011;4761;49.490;10.908;2023-05-19T05:18:12;3.60;;;2.37;;
9445;SDS011;4761;49.490;10.908;2023-05-19T05:20:39;3.40;;;2.17;;
9445;SDS011;4761;49.490;10.908;2023-05-19T05:23:08;3.80;;;2.00;;
9445;SDS011;4761;49.490;10.908;2023-05-19T05:25:35;4.13;;;2.50;;
9445;SDS011;4761;49.490;10.908;2023-05-19T05:28:00;3.83;;;2.33;;
9445;SDS011;4761;49.490;10.908;2023-05-19T05:30:29;3.60;;;2.37;;
9445;SDS011;4761;49.490;10.908;2023-05-19T05:32:55;4.40;;;2.23;;
9445;SDS011;4761;49.490;10.908;2023-05-19T05:35:21;3.40;;;2.10;;
9445;SDS011;4761;49.490;10.908;2023-05-19T05:37:48;3.20;;;2.10;;
9445;SDS011;4761;49.490;10.908;2023-05-19T05:40:14;3.20;;;2.00;;
9445;SDS011;4761;49.490;10.908;2023-05-19T05:42:39;4.37;;;2.40;;
9445;SDS011;4761;49.490;10.908;2023-05-19T05:45:05;5.13;;;2.60;;
9445;SDS011;4761;49.490;10.908;2023-05-19T05:47:31;3.03;;;2.13;;
9445;SDS011;4761;49.490;10.908;2023-05-19T05:49:57;3.50;;;1.80;;
9445;SDS011;4761;49.490;10.908;2023-05-19T05:52:24;3.40;;;2.00;;
9445;SDS011;4761;49.490;10.908;2023-05-19T05:54:54;3.33;;;1.87;;
9445;SDS011;4761;49.490;10.908;2023-05-19T05:57:20;3.07;;;2.00;;
9445;SDS011;4761;49.490;10.908;2023-05-19T05:59:46;3.43;;;1.67;;
9445;SDS011;4761;49.490;10.908;2023-05-19T06:02:12;2.60;;;1.77;;
9445;SDS011;4761;49.490;10.908;2023-05-19T06:04:37;5.10;;;2.33;;
9445;SDS011;4761;49.490;10.908;2023-05-19T06:07:03;3.13;;;2.43;;
9445;SDS011;4761;49.490;10.908;2023-05-19T06:09:29;3.47;;;2.23;;
9445;SDS011;4761;49.490;10.908;2023-05-19T06:14:21;4.47;;;2.23;;
9445;SDS011;4761;49.490;10.908;2023-05-19T06:16:47;8.40;;;5.13;;
9445;SDS011;4761;49.490;10.908;2023-05-19T06:19:13;11.60;;;7.40;;
9445;SDS011;4761;49.490;10.908;2023-05-19T06:21:38;10.23;;;7.00;;
9445;SDS011;4761;49.490;10.908;2023-05-19T06:24:06;9.33;;;5.97;;
9445;SDS011;4761;49.490;10.908;2023-05-19T06:26:32;8.43;;;5.00;;
9445;SDS011;4761;49.490;10.908;2023-05-19T06:28:57;8.27;;;5.13;;
9445;SDS011;4761;49.490;10.908;2023-05-19T06:31:23;9.23;;;5.30;;
9445;SDS011;4761;49.490;10.908;2023-05-19T06:33:50;8.00;;;4.23;;
9445;SDS011;4761;49.490;10.908;2023-05-19T06:36:16;6.53;;;3.47;;
9445;SDS011;4761;49.490;10.908;2023-05-19T06:38:41;6.90;;;4.30;;
9445;SDS011;4761;49.490;10.908;2023-05-19T06:41:07;8.30;;;4.37;;
9445;SDS011;4761;49.490;10.908;2023-05-19T06:43:32;7.23;;;4.00;;
9445;SDS011;4761;49.490;10.908;2023-05-19T06:45:58;8.00;;;4.40;;
9445;SDS011;4761;49.490;10.908;2023-05-19T06:48:23;7.77;;;4.17;;
9445;SDS011;4761;49.490;10.908;2023-05-19T06:50:49;9.67;;;5.20;;
9445;SDS011;4761;49.490;10.908;2023-05-19T06:53:15;10.10;;;5.03;;
9445;SDS011;4761;49.490;10.908;2023-05-19T06:55:43;6.93;;;3.80;;
9445;SDS011;4761;49.490;10.908;2023-05-19T06:58:08;6.10;;;3.40;;
9445;SDS011;4761;49.490;10.908;2023-05-19T07:00:34;6.87;;;3.20;;
9445;SDS011;4761;49.490;10.908;2023-05-19T07:02:59;8.98;;;4.07;;
9445;SDS011;4761;49.490;10.908;2023-05-19T07:05:25;9.85;;;3.92;;
9445;SDS011;4761;49.490;10.908;2023-05-19T07:07:51;6.80;;;3.17;;
9445;SDS011;4761;49.490;10.908;2023-05-19T07:10:16;4.45;;;3.00;;
9445;SDS011;4761;49.490;10.908;2023-05-19T07:12:42;7.20;;;3.40;;
9445;SDS011;4761;49.490;10.908;2023-05-19T07:15:07;9.38;;;4.65;;
9445;SDS011;4761;49.490;10.908;2023-05-19T07:17:33;10.18;;;4.85;;
9445;SDS011;4761;49.490;10.908;2023-05-19T07:19:59;5.38;;;3.33;;
9445;SDS011;4761;49.490;10.908;2023-05-19T07:22:25;5.60;;;3.00;;
9445;SDS011;4761;49.490;10.908;2023-05-19T07:24:51;8.43;;;3.60;;
9445;SDS011;4761;49.490;10.908;2023-05-19T07:27:16;8.35;;;3.78;;
9445;SDS011;4761;49.490;10.908;2023-05-19T07:29:42;9.50;;;4.03;;
9445;SDS011;4761;49.490;10.908;2023-05-19T07:32:07;10.25;;;4.85;;
9445;SDS011;4761;49.490;10.908;2023-05-19T07:34:33;9.00;;;4.68;;
9445;SDS011;4761;49.490;10.908;2023-05-19T07:36:58;8.98;;;4.38;;
9445;SDS011;4761;49.490;10.908;2023-05-19T07:39:24;10.70;;;4.85;;
9445;SDS011;4761;49.490;10.908;2023-05-19T07:41:53;6.72;;;4.20;;
9445;SDS011;4761;49.490;10.908;2023-05-19T07:44:19;5.18;;;3.53;;
9445;SDS011;4761;49.490;10.908;2023-05-19T07:46:45;5.53;;;3.17;;
9445;SDS011;4761;49.490;10.908;2023-05-19T07:49:10;5.45;;;3.38;;
9445;SDS011;4761;49.490;10.908;2023-05-19T07:51:36;4.63;;;2.78;;
9445;SDS011;4761;49.490;10.908;2023-05-19T07:54:01;4.93;;;3.50;;
9445;SDS011;4761;49.490;10.908;2023-05-19T07:56:27;6.05;;;3.38;;
9445;SDS011;4761;49.490;10.908;2023-05-19T07:58:53;6.00;;;3.20;;
9445;SDS011;4761;49.490;10.908;2023-05-19T08:01:19;3.37;;;2.03;;
9445;SDS011;4761;49.490;10.908;2023-05-19T08:03:44;3.97;;;2.10;;
9445;SDS011;4761;49.490;10.908;2023-05-19T08:06:10;4.18;;;2.22;;
9445;SDS011;4761;49.490;10.908;2023-05-19T08:08:35;4.15;;;1.98;;
9445;SDS011;4761;49.490;10.908;2023-05-19T08:11:01;3.83;;;2.20;;
9445;SDS011;4761;49.490;10.908;2023-05-19T08:13:28;3.22;;;2.00;;
9445;SDS011;4761;49.490;10.908;2023-05-19T08:15:54;3.43;;;2.10;;
9445;SDS011;4761;49.490;10.908;2023-05-19T08:18:23;3.43;;;2.30;;
9445;SDS011;4761;49.490;10.908;2023-05-19T08:20:49;3.37;;;2.20;;
9445;SDS011;4761;49.490;10.908;2023-05-19T08:23:15;3.73;;;2.30;;
9445;SDS011;4761;49.490;10.908;2023-05-19T08:25:41;4.17;;;2.27;;
9445;SDS011;4761;49.490;10.908;2023-05-19T08:28:07;3.27;;;1.93;;
9445;SDS011;4761;49.490;10.908;2023-05-19T08:30:33;3.37;;;2.17;;
9445;SDS011;4761;49.490;10.908;2023-05-19T08:32:58;3.17;;;2.23;;
9445;SDS011;4761;49.490;10.908;2023-05-19T08:35:24;2.87;;;1.80;;
9445;SDS011;4761;49.490;10.908;2023-05-19T08:37:49;2.83;;;2.13;;
9445;SDS011;4761;49.490;10.908;2023-05-19T08:40:15;3.17;;;2.23;;
9445;SDS011;4761;49.490;10.908;2023-05-19T08:42:42;3.53;;;2.20;;
9445;SDS011;4761;49.490;10.908;2023-05-19T08:45:09;4.70;;;2.17;;
9445;SDS011;4761;49.490;10.908;2023-05-19T08:47:34;3.97;;;2.10;;
9445;SDS011;4761;49.490;10.908;2023-05-19T08:50:04;4.83;;;2.33;;
9445;SDS011;4761;49.490;10.908;2023-05-19T08:55:35;4.37;;;2.10;;
9445;SDS011;4761;49.490;10.908;2023-05-19T08:58:22;4.00;;;1.97;;
9445;SDS011;4761;49.490;10.908;2023-05-19T09:00:48;3.93;;;2.53;;
9445;SDS011;4761;49.490;10.908;2023-05-19T09:03:15;4.07;;;2.10;;
9445;SDS011;4761;49.490;10.908;2023-05-19T09:05:42;3.27;;;2.13;;
9445;SDS011;4761;49.490;10.908;2023-05-19T09:08:08;2.87;;;1.83;;
9445;SDS011;4761;49.490;10.908;2023-05-19T09:10:33;3.23;;;2.27;;
9445;SDS011;4761;49.490;10.908;2023-05-19T09:12:59;3.90;;;2.40;;
9445;SDS011;4761;49.490;10.908;2023-05-19T09:15:25;3.13;;;2.23;;
9445;SDS011;4761;49.490;10.908;2023-05-19T09:18:10;3.60;;;1.97;;
9445;SDS011;4761;49.490;10.908;2023-05-19T09:20:43;4.60;;;1.80;;
9445;SDS011;4761;49.490;10.908;2023-05-19T09:23:11;2.50;;;1.97;;
9445;SDS011;4761;49.490;10.908;2023-05-19T09:25:48;3.27;;;1.80;;
9445;SDS011;4761;49.490;10.908;2023-05-19T09:28:21;3.47;;;2.17;;
9445;SDS011;4761;49.490;10.908;2023-05-19T09:30:57;3.60;;;2.20;;
9445;SDS011;4761;49.490;10.908;2023-05-19T09:33:31;3.03;;;1.90;;
9445;SDS011;4761;49.490;10.908;2023-05-19T09:36:01;2.53;;;1.77;;
9445;SDS011;4761;49.490;10.908;2023-05-19T09:38:29;4.23;;;2.43;;
9445;SDS011;4761;49.490;10.908;2023-05-19T09:40:55;4.90;;;2.63;;
9445;SDS011;4761;49.490;10.908;2023-05-19T09:43:22;3.63;;;2.43;;
9445;SDS011;4761;49.490;10.908;2023-05-19T09:45:48;3.37;;;2.23;;
9445;SDS011;4761;49.490;10.908;2023-05-19T09:48:18;3.93;;;2.43;;
9445;SDS011;4761;49.490;10.908;2023-05-19T09:50:44;5.83;;;2.50;;
9445;SDS011;4761;49.490;10.908;2023-05-19T09:53:11;3.10;;;2.40;;
9445;SDS011;4761;49.490;10.908;2023-05-19T09:55:38;3.60;;;2.50;;
9445;SDS011;4761;49.490;10.908;2023-05-19T09:58:06;4.73;;;2.83;;
9445;SDS011;4761;49.490;10.908;2023-05-19T10:00:32;6.10;;;2.73;;
9445;SDS011;4761;49.490;10.908;2023-05-19T10:02:58;3.87;;;2.50;;
9445;SDS011;4761;49.490;10.908;2023-05-19T10:05:25;2.97;;;2.50;;
9445;SDS011;4761;49.490;10.908;2023-05-19T10:07:52;6.07;;;2.83;;
9445;SDS011;4761;49.490;10.908;2023-05-19T10:10:19;4.73;;;2.97;;
9445;SDS011;4761;49.490;10.908;2023-05-19T10:12:46;3.70;;;2.50;;
9445;SDS011;4761;49.490;10.908;2023-05-19T10:15:13;3.63;;;2.33;;
9445;SDS011;4761;49.490;10.908;2023-05-19T10:17:40;3.67;;;2.50;;
9445;SDS011;4761;49.490;10.908;2023-05-19T10:20:12;3.63;;;2.50;;
9445;SDS011;4761;49.490;10.908;2023-05-19T10:22:39;3.70;;;3.20;;
9445;SDS011;4761;49.490;10.908;2023-05-19T10:25:09;6.00;;;4.23;;
9445;SDS011;4761;49.490;10.908;2023-05-19T10:27:39;5.20;;;3.90;;
9445;SDS011;4761;49.490;10.908;2023-05-19T10:30:14;4.90;;;4.00;;
9445;SDS011;4761;49.490;10.908;2023-05-19T10:32:43;5.93;;;4.17;;
9445;SDS011;4761;49.490;10.908;2023-05-19T10:35:19;6.20;;;4.20;;
9445;SDS011;4761;49.490;10.908;2023-05-19T10:40:59;5.37;;;3.90;;
9445;SDS011;4761;49.490;10.908;2023-05-19T10:43:45;5.07;;;3.80;;
9445;SDS011;4761;49.490;10.908;2023-05-19T10:46:31;4.97;;;3.47;;
9445;SDS011;4761;49.490;10.908;2023-05-19T10:48:57;4.40;;;3.10;;
9445;SDS011;4761;49.490;10.908;2023-05-19T10:51:30;6.40;;;3.13;;
9445;SDS011;4761;49.490;10.908;2023-05-19T10:53:56;4.37;;;3.43;;
9445;SDS011;4761;49.490;10.908;2023-05-19T10:56:32;5.67;;;3.40;;
9445;SDS011;4761;49.490;10.908;2023-05-19T10:59:00;4.73;;;3.37;;
9445;SDS011;4761;49.490;10.908;2023-05-19T11:01:30;3.80;;;2.80;;
9445;SDS011;4761;49.490;10.908;2023-05-19T11:03:57;2.53;;;2.00;;
9445;SDS011;4761;49.490;10.908;2023-05-19T11:06:38;2.70;;;1.97;;
9445;SDS011;4761;49.490;10.908;2023-05-19T11:09:11;3.47;;;1.83;;
9445;SDS011;4761;49.490;10.908;2023-05-19T11:11:43;2.40;;;2.07;;
9445;SDS011;4761;49.490;10.908;2023-05-19T11:14:17;2.07;;;1.77;;
9445;SDS011;4761;49.490;10.908;2023-05-19T11:16:47;3.37;;;3.07;;
9445;SDS011;4761;49.490;10.908;2023-05-19T11:22:09;6.07;;;4.60;;
9445;SDS011;4761;49.490;10.908;2023-05-19T11:27:26;3.47;;;2.87;;
9445;SDS011;4761;49.490;10.908;2023-05-19T11:30:00;3.63;;;2.80;;
9445;SDS011;4761;49.490;10.908;2023-05-19T11:32:35;3.17;;;2.40;;
9445;SDS011;4761;49.490;10.908;2023-05-19T11:35:03;3.13;;;2.42;;
9445;SDS011;4761;49.490;10.908;2023-05-19T11:37:30;4.18;;;3.15;;
9445;SDS011;4761;49.490;10.908;2023-05-19T11:39:56;4.30;;;3.53;;
9445;SDS011;4761;49.490;10.908;2023-05-19T11:42:25;4.70;;;3.22;;
9445;SDS011;4761;49.490;10.908;2023-05-19T11:44:53;5.28;;;3.42;;
9445;SDS011;4761;49.490;10.908;2023-05-19T11:47:19;5.47;;;3.10;;
9445;SDS011;4761;49.490;10.908;2023-05-19T11:49:48;4.18;;;2.88;;
9445;SDS011;4761;49.490;10.908;2023-05-19T11:52:15;4.22;;;2.80;;
9445;SDS011;4761;49.490;10.908;2023-05-19T11:54:41;4.05;;;2.80;;
9445;SDS011;4761;49.490;10.908;2023-05-19T11:57:07;3.38;;;2.42;;
9445;SDS011;4761;49.490;10.908;2023-05-19T11:59:37;4.20;;;2.63;;
9445;SDS011;4761;49.490;10.908;2023-05-19T12:04:49;3.92;;;2.63;;
9445;SDS011;4761;49.490;10.908;2023-05-19T12:07:15;4.07;;;2.90;;
9445;SDS011;4761;49.490;10.908;2023-05-19T12:09:45;2.90;;;2.13;;
9445;SDS011;4761;49.490;10.908;2023-05-19T12:12:18;3.25;;;1.90;;
9445;SDS011;4761;49.490;10.908;2023-05-19T12:14:48;2.03;;;1.60;;
9445;SDS011;4761;49.490;10.908;2023-05-19T12:17:16;3.00;;;2.00;;
9445;SDS011;4761;49.490;10.908;2023-05-19T12:19:49;3.25;;;2.05;;
9445;SDS011;4761;49.490;10.908;2023-05-19T12:22:15;3.50;;;2.28;;
9445;SDS011;4761;49.490;10.908;2023-05-19T12:24:41;4.15;;;2.58;;
9445;SDS011;4761;49.490;10.908;2023-05-19T12:27:11;4.18;;;2.45;;
9445;SDS011;4761;49.490;10.908;2023-05-19T12:29:40;5.93;;;3.38;;
9445;SDS011;4761;49.490;10.908;2023-05-19T12:32:06;5.40;;;3.08;;
9445;SDS011;4761;49.490;10.908;2023-05-19T12:34:36;3.58;;;2.22;;
9445;SDS011;4761;49.490;10.908;2023-05-19T12:37:02;3.65;;;2.30;;
9445;SDS011;4761;49.490;10.908;2023-05-19T12:39:31;5.45;;;2.97;;
9445;SDS011;4761;49.490;10.908;2023-05-19T12:42:06;8.48;;;4.32;;
9445;SDS011;4761;49.490;10.908;2023-05-19T12:44:36;6.43;;;3.50;;
9445;SDS011;4761;49.490;10.908;2023-05-19T12:47:05;7.40;;;3.55;;
9445;SDS011;4761;49.490;10.908;2023-05-19T12:49:32;7.20;;;3.42;;
9445;SDS011;4761;49.490;10.908;2023-05-19T12:51:59;5.45;;;2.95;;
9445;SDS011;4761;49.490;10.908;2023-05-19T12:54:27;5.50;;;2.65;;
9445;SDS011;4761;49.490;10.908;2023-05-19T12:56:56;3.33;;;2.17;;
9445;SDS011;4761;49.490;10.908;2023-05-19T12:59:23;4.05;;;2.63;;
9445;SDS011;4761;49.490;10.908;2023-05-19T13:01:55;4.35;;;2.10;;
9445;SDS011;4761;49.490;10.908;2023-05-19T13:04:21;1.90;;;1.50;;
9445;SDS011;4761;49.490;10.908;2023-05-19T13:06:48;1.73;;;1.60;;
9445;SDS011;4761;49.490;10.908;2023-05-19T13:09:13;2.50;;;1.80;;
9445;SDS011;4761;49.490;10.908;2023-05-19T13:11:41;2.40;;;1.63;;
9445;SDS011;4761;49.490;10.908;2023-05-19T13:14:07;1.73;;;1.52;;
9445;SDS011;4761;49.490;10.908;2023-05-19T13:16:34;1.60;;;1.38;;
9445;SDS011;4761;49.490;10.908;2023-05-19T13:18:59;1.83;;;1.60;;
9445;SDS011;4761;49.490;10.908;2023-05-19T13:21:25;1.80;;;1.40;;
9445;SDS011;4761;49.490;10.908;2023-05-19T13:23:51;4.18;;;1.63;;
9445;SDS011;4761;49.490;10.908;2023-05-19T13:26:17;1.67;;;1.25;;
9445;SDS011;4761;49.490;10.908;2023-05-19T13:28:42;1.40;;;1.30;;
9445;SDS011;4761;49.490;10.908;2023-05-19T13:31:08;1.80;;;1.50;;
9445;SDS011;4761;49.490;10.908;2023-05-19T13:33:34;1.90;;;1.50;;
9445;SDS011;4761;49.490;10.908;2023-05-19T13:35:59;1.48;;;1.33;;
9445;SDS011;4761;49.490;10.908;2023-05-19T13:38:25;1.90;;;1.52;;
9445;SDS011;4761;49.490;10.908;2023-05-19T13:40:51;1.40;;;1.30;;
9445;SDS011;4761;49.490;10.908;2023-05-19T13:43:17;2.42;;;1.60;;
9445;SDS011;4761;49.490;10.908;2023-05-19T13:45:42;2.15;;;1.50;;
9445;SDS011;4761;49.490;10.908;2023-05-19T13:48:08;1.65;;;1.55;;
9445;SDS011;4761;49.490;10.908;2023-05-19T13:50:35;1.80;;;1.67;;
9445;SDS011;4761;49.490;10.908;2023-05-19T13:53:01;1.70;;;1.40;;
9445;SDS011;4761;49.490;10.908;2023-05-19T13:55:27;1.55;;;1.38;;
9445;SDS011;4761;49.490;10.908;2023-05-19T13:57:53;1.70;;;1.35;;
9445;SDS011;4761;49.490;10.908;2023-05-19T14:00:18;1.60;;;1.30;;
9445;SDS011;4761;49.490;10.908;2023-05-19T14:02:45;2.08;;;1.55;;
9445;SDS011;4761;49.490;10.908;2023-05-19T14:05:10;3.45;;;1.50;;
9445;SDS011;4761;49.490;10.908;2023-05-19T14:07:36;3.22;;;1.33;;
9445;SDS011;4761;49.490;10.908;2023-05-19T14:10:02;2.30;;;1.70;;
9445;SDS011;4761;49.490;10.908;2023-05-19T14:12:29;3.47;;;1.60;;
9445;SDS011;4761;49.490;10.908;2023-05-19T14:14:55;2.72;;;1.55;;
9445;SDS011;4761;49.490;10.908;2023-05-19T14:17:20;1.48;;;1.27;;
9445;SDS011;4761;49.490;10.908;2023-05-19T14:19:46;1.90;;;1.38;;
9445;SDS011;4761;49.490;10.908;2023-05-19T14:22:11;1.63;;;1.17;;
9445;SDS011;4761;49.490;10.908;2023-05-19T14:24:37;3.65;;;1.80;;
9445;SDS011;4761;49.490;10.908;2023-05-19T14:27:03;1.95;;;1.30;;
9445;SDS011;4761;49.490;10.908;2023-05-19T14:29:28;3.00;;;1.45;;
9445;SDS011;4761;49.490;10.908;2023-05-19T14:31:55;1.67;;;1.30;;
9445;SDS011;4761;49.490;10.908;2023-05-19T14:34:20;2.80;;;1.58;;
9445;SDS011;4761;49.490;10.908;2023-05-19T14:36:46;3.88;;;1.42;;
9445;SDS011;4761;49.490;10.908;2023-05-19T14:39:12;2.65;;;1.30;;
9445;SDS011;4761;49.490;10.908;2023-05-19T14:41:38;4.05;;;1.27;;
9445;SDS011;4761;49.490;10.908;2023-05-19T14:44:04;2.30;;;1.42;;
9445;SDS011;4761;49.490;10.908;2023-05-19T14:46:29;1.30;;;1.20;;
9445;SDS011;4761;49.490;10.908;2023-05-19T14:48:55;2.53;;;1.48;;
9445;SDS011;4761;49.490;10.908;2023-05-19T14:51:20;2.13;;;1.40;;
9445;SDS011;4761;49.490;10.908;2023-05-19T14:53:46;1.83;;;1.25;;
9445;SDS011;4761;49.490;10.908;2023-05-19T14:56:14;2.33;;;1.60;;
9445;SDS011;4761;49.490;10.908;2023-05-19T14:58:39;2.45;;;1.30;;
9445;SDS011;4761;49.490;10.908;2023-05-19T15:01:05;1.50;;;1.00;;
9445;SDS011;4761;49.490;10.908;2023-05-19T15:03:30;2.03;;;1.30;;
9445;SDS011;4761;49.490;10.908;2023-05-19T15:05:56;1.95;;;1.30;;
9445;SDS011;4761;49.490;10.908;2023-05-19T15:08:21;1.52;;;1.38;;
9445;SDS011;4761;49.490;10.908;2023-05-19T15:10:47;1.40;;;1.30;;
9445;SDS011;4761;49.490;10.908;2023-05-19T15:13:13;2.42;;;1.27;;
9445;SDS011;4761;49.490;10.908;2023-05-19T15:15:40;1.67;;;1.30;;
9445;SDS011;4761;49.490;10.908;2023-05-19T15:18:05;2.25;;;1.35;;
9445;SDS011;4761;49.490;10.908;2023-05-19T15:20:31;2.15;;;1.30;;
9445;SDS011;4761;49.490;10.908;2023-05-19T15:22:56;1.60;;;1.42;;
9445;SDS011;4761;49.490;10.908;2023-05-19T15:25:22;1.63;;;1.30;;
9445;SDS011;4761;49.490;10.908;2023-05-19T15:27:47;1.83;;;1.50;;
9445;SDS011;4761;49.490;10.908;2023-05-19T15:30:13;2.42;;;1.25;;
9445;SDS011;4761;49.490;10.908;2023-05-19T15:32:38;1.45;;;1.35;;
9445;SDS011;4761;49.490;10.908;2023-05-19T15:35:04;2.67;;;1.63;;